Sunday, August 19, 2018, 1:55 PM EDT
Back to Local

KMIV, Millville Municipal Airport

Location: Millville, NJ, United States Lat: 39.367
Local Time: 1:55 PM EDT (17:55 GMT) Lon: -75.083
Time Zone: US/Eastern Elev: 85 ft

Show me the last for .
Show Decoded

2018-08-19 13:05 METAR KMIV 191705Z AUTO 08008G16KT 10SM OVC014 23/20 A2994 RMK AO2 T02280200 =
2018-08-19 12:54 METAR KMIV 191654Z AUTO 07009KT 10SM OVC015 24/21 A2994 RMK AO2 SLP137 T02390206
                 =
2018-08-19 12:26 METAR KMIV 191626Z AUTO 08010KT 10SM OVC015 23/21 A2994 RMK AO2 T02330206 =
2018-08-19 11:54 METAR KMIV 191554Z AUTO 04010KT 10SM OVC014 23/21 A2994 RMK AO2 SLP136 T02280206
                 =
2018-08-19 10:54 METAR KMIV 191454Z AUTO 05008KT 10SM OVC012 24/21 A2993 RMK AO2 SLP133 T02390211
                 53013 =
2018-08-19 09:54 METAR KMIV 191354Z AUTO 05009KT 10SM BKN014 OVC021 23/21 A2992 RMK AO2 SLP129
                 T02330206 =
2018-08-19 08:54 METAR KMIV 191254Z AUTO 04009KT 10SM OVC012 23/21 A2990 RMK AO2 SLP122 T02330206
                 =
2018-08-19 08:37 METAR KMIV 191237Z AUTO 05010KT 10SM BKN012 BKN023 OVC039 23/21 A2990 RMK AO2
                 T02280206 =
2018-08-19 08:29 METAR KMIV 191229Z AUTO 05010KT 10SM SCT013 BKN023 OVC039 23/20 A2990 RMK AO2
                 T02280200 =
2018-08-19 08:13 METAR KMIV 191213Z AUTO 06007KT 10SM FEW012 BKN030 OVC039 22/20 A2990 RMK AO2
                 T02220200 =
2018-08-19 07:54 METAR KMIV 191154Z AUTO 05006KT 10SM FEW012 BKN021 OVC029 22/20 A2989 RMK AO2
                 SLP120 60012 70012 T02220200 10233 20222 53020 =
2018-08-19 06:54 METAR KMIV 191054Z AUTO 06006KT 10SM FEW018 OVC023 22/20 A2987 RMK AO2 SLP114
                 T02220200 =
2018-08-19 06:29 METAR KMIV 191029Z AUTO 03006KT 10SM SCT010 OVC020 22/21 A2986 RMK AO2 T02220206
                 =
2018-08-19 06:11 METAR KMIV 191011Z AUTO 02006KT 10SM OVC010 22/21 A2985 RMK AO2 T02220206 =
2018-08-19 05:54 METAR KMIV 190954Z AUTO 02006KT 10SM BKN009 OVC015 23/21 A2984 RMK AO2 SLP104
                 T02280211 =
2018-08-19 05:33 METAR KMIV 190933Z AUTO 03007KT 10SM BKN008 OVC015 23/22 A2984 RMK AO2 CIG
                 007V012 T02280217 =
2018-08-19 04:54 METAR KMIV 190854Z AUTO 03006KT 10SM FEW008 OVC013 23/22 A2983 RMK AO2 SLP099
                 60012 T02280217 50002 =
2018-08-19 03:54 METAR KMIV 190754Z AUTO 05004KT 10SM FEW009 OVC013 23/22 A2983 RMK AO2 RAE18
                 SLP100 P0002 T02280222 =
2018-08-19 03:38 METAR KMIV 190738Z AUTO 03006KT 10SM OVC012 23/22 A2983 RMK AO2 RAE18 P0002
                 T02280222 =
2018-08-19 03:29 METAR KMIV 190729Z AUTO 04006KT 10SM SCT010 BKN015 OVC075 23/22 A2983 RMK AO2
                 RAE18 P0002 T02330222 =
2018-08-19 02:54 METAR KMIV 190654Z AUTO 08005KT 3SM -RA BR BKN012 OVC041 23/22 A2984 RMK AO2
                 RAB44 SLP101 P0010 T02330222 =
2018-08-19 02:46 METAR KMIV 190646Z AUTO 10005KT 4SM -RA BR BKN012 OVC041 24/22 A2984 RMK AO2
                 RAB44 P0006 T02390222 =
2018-08-19 01:54 METAR KMIV 190554Z AUTO 00000KT 10SM SCT044 SCT060 24/22 A2982 RMK AO2 SLP097
                 60000 T02390222 10267 20233 55003 =
2018-08-19 00:54 METAR KMIV 190454Z AUTO 32003KT 10SM BKN037 BKN043 24/22 A2982 RMK AO2 LTG DSNT
                 S SLP095 T02440222 403170228 =
2018-08-18 23:54 METAR KMIV 190354Z AUTO 30004KT 10SM FEW040 24/23 A2983 RMK AO2 LTG DSNT E AND
                 SE SLP097 T02440228 =
2018-08-18 22:54 METAR KMIV 190254Z AUTO 27005KT 10SM BKN048 OVC060 25/23 A2984 RMK AO2 LTG DSNT
                 NW SLP100 60000 T02500233 51006 =
2018-08-18 21:54 METAR KMIV 190154Z AUTO 28003KT 10SM FEW050 BKN085 24/23 A2983 RMK AO2 LTG DSNT
                 SW SLP100 T02440233 =
2018-08-18 20:54 METAR KMIV 190054Z AUTO 00000KT 10SM CLR 25/23 A2983 RMK AO2 RAB2356E08 SLP100
                 P0000 T02500233 =
2018-08-18 19:54 METAR KMIV 182354Z AUTO 25005KT 10SM FEW055 BKN080 OVC090 27/23 A2982 RMK AO2
                 SLP094 T02670233 10317 20267 51008 =
2018-08-18 18:54 METAR KMIV 182254Z AUTO 27004KT 10SM FEW050 SCT060 BKN110 28/23 A2981 RMK AO2
                 SLP093 T02780233 =
2018-08-18 17:54 METAR KMIV 182154Z AUTO 27005KT 10SM CLR 29/23 A2980 RMK AO2 SLP089 T02890228 =
2018-08-18 16:54 METAR KMIV 182054Z AUTO 25007KT 10SM CLR 29/22 A2979 RMK AO2 LTG DSNT NW SLP086
                 T02940222 56016 =
2018-08-18 15:54 METAR KMIV 181954Z AUTO 26009KT 10SM FEW034 31/22 A2981 RMK AO2 SLP091 T03110222
                 =
2018-08-18 14:54 METAR KMIV 181854Z AUTO 24010G18KT 10SM SCT035 31/22 A2982 RMK AO2 SLP095
                 T03110222 =

Support USWX by starting your Amazon purchase here.